sensor_id;sensor_type;location;lat;lon;timestamp;pressure;altitude;pressure_sealevel;temperature;humidity
42105;BME280;61464;51.472;5.712;2022-08-19T00:00:37;101175.81;;;16.84;100.00
42105;BME280;61464;51.472;5.712;2022-08-19T00:03:05;101186.19;;;16.77;100.00
42105;BME280;61464;51.472;5.712;2022-08-19T00:05:31;101191.38;;;16.70;100.00
42105;BME280;61464;51.472;5.712;2022-08-19T00:07:57;101186.09;;;16.64;100.00
42105;BME280;61464;51.472;5.712;2022-08-19T00:10:24;101185.84;;;16.80;100.00
42105;BME280;61464;51.472;5.712;2022-08-19T00:12:50;101186.31;;;16.84;100.00
42105;BME280;61464;51.472;5.712;2022-08-19T00:15:20;101192.53;;;16.83;100.00
42105;BME280;61464;51.472;5.712;2022-08-19T00:17:46;101181.09;;;16.69;100.00
42105;BME280;61464;51.472;5.712;2022-08-19T00:20:15;101192.72;;;16.60;100.00
42105;BME280;61464;51.472;5.712;2022-08-19T00:22:44;101189.66;;;16.56;100.00
42105;BME280;61464;51.472;5.712;2022-08-19T00:25:11;101190.72;;;16.62;100.00
42105;BME280;61464;51.472;5.712;2022-08-19T00:27:38;101184.16;;;16.51;100.00
42105;BME280;61464;51.472;5.712;2022-08-19T00:30:06;101185.34;;;16.48;100.00
42105;BME280;61464;51.472;5.712;2022-08-19T00:32:33;101186.47;;;16.39;100.00
42105;BME280;61464;51.472;5.712;2022-08-19T00:35:00;101186.16;;;16.49;100.00
42105;BME280;61464;51.472;5.712;2022-08-19T00:37:26;101188.91;;;16.41;100.00
42105;BME280;61464;51.472;5.712;2022-08-19T00:39:53;101184.59;;;16.55;100.00
42105;BME280;61464;51.472;5.712;2022-08-19T00:42:20;101190.34;;;16.43;100.00
42105;BME280;61464;51.472;5.712;2022-08-19T00:44:46;101185.09;;;16.43;100.00
42105;BME280;61464;51.472;5.712;2022-08-19T00:47:13;101184.28;;;16.43;100.00
42105;BME280;61464;51.472;5.712;2022-08-19T00:49:53;101182.34;;;16.52;100.00
42105;BME280;61464;51.472;5.712;2022-08-19T00:52:36;101182.22;;;16.60;100.00
42105;BME280;61464;51.472;5.712;2022-08-19T00:55:05;101182.03;;;16.61;100.00
42105;BME280;61464;51.472;5.712;2022-08-19T00:57:39;101184.72;;;16.68;100.00
42105;BME280;61464;51.472;5.712;2022-08-19T01:00:11;101174.22;;;16.46;100.00
42105;BME280;61464;51.472;5.712;2022-08-19T01:02:39;101185.03;;;16.58;100.00
42105;BME280;61464;51.472;5.712;2022-08-19T01:05:13;101190.84;;;16.54;100.00
42105;BME280;61464;51.472;5.712;2022-08-19T01:07:40;101189.78;;;16.48;100.00
42105;BME280;61464;51.472;5.712;2022-08-19T01:10:16;101193.31;;;16.40;100.00
42105;BME280;61464;51.472;5.712;2022-08-19T01:12:45;101189.03;;;16.33;100.00
42105;BME280;61464;51.472;5.712;2022-08-19T01:15:17;101191.94;;;16.23;100.00
42105;BME280;61464;51.472;5.712;2022-08-19T01:17:44;101190.13;;;16.23;100.00
42105;BME280;61464;51.472;5.712;2022-08-19T01:20:21;101186.75;;;16.08;100.00
42105;BME280;61464;51.472;5.712;2022-08-19T01:22:51;101184.63;;;16.18;100.00
42105;BME280;61464;51.472;5.712;2022-08-19T01:25:24;101185.16;;;16.14;100.00
42105;BME280;61464;51.472;5.712;2022-08-19T01:27:52;101186.06;;;16.21;100.00
42105;BME280;61464;51.472;5.712;2022-08-19T01:30:32;101189.88;;;16.18;100.00
42105;BME280;61464;51.472;5.712;2022-08-19T01:32:59;101191.13;;;16.22;100.00
42105;BME280;61464;51.472;5.712;2022-08-19T01:35:28;101194.09;;;16.19;100.00
42105;BME280;61464;51.472;5.712;2022-08-19T01:38:07;101201.00;;;16.05;100.00
42105;BME280;61464;51.472;5.712;2022-08-19T01:40:39;101196.31;;;16.01;100.00
42105;BME280;61464;51.472;5.712;2022-08-19T01:43:05;101210.88;;;15.88;100.00
42105;BME280;61464;51.472;5.712;2022-08-19T01:45:34;101203.94;;;15.96;100.00
42105;BME280;61464;51.472;5.712;2022-08-19T01:48:02;101201.09;;;15.97;100.00
42105;BME280;61464;51.472;5.712;2022-08-19T01:50:30;101203.50;;;15.77;100.00
42105;BME280;61464;51.472;5.712;2022-08-19T01:52:56;101202.66;;;15.77;100.00
42105;BME280;61464;51.472;5.712;2022-08-19T01:55:22;101204.53;;;15.83;100.00
42105;BME280;61464;51.472;5.712;2022-08-19T01:57:53;101212.22;;;15.69;100.00
42105;BME280;61464;51.472;5.712;2022-08-19T02:00:24;101215.00;;;15.68;100.00
42105;BME280;61464;51.472;5.712;2022-08-19T02:02:50;101213.47;;;15.59;100.00
42105;BME280;61464;51.472;5.712;2022-08-19T02:05:16;101217.16;;;15.64;100.00
42105;BME280;61464;51.472;5.712;2022-08-19T02:07:43;101213.09;;;15.62;100.00
42105;BME280;61464;51.472;5.712;2022-08-19T02:10:16;101212.94;;;15.48;100.00
42105;BME280;61464;51.472;5.712;2022-08-19T02:12:43;101220.97;;;15.47;100.00
42105;BME280;61464;51.472;5.712;2022-08-19T02:15:09;101233.31;;;15.53;100.00
42105;BME280;61464;51.472;5.712;2022-08-19T02:17:35;101210.56;;;15.54;100.00
42105;BME280;61464;51.472;5.712;2022-08-19T02:20:01;101219.59;;;15.66;100.00
42105;BME280;61464;51.472;5.712;2022-08-19T02:22:27;101209.78;;;15.53;100.00
42105;BME280;61464;51.472;5.712;2022-08-19T02:24:55;101199.47;;;15.52;100.00
42105;BME280;61464;51.472;5.712;2022-08-19T02:27:22;101201.28;;;15.51;100.00
42105;BME280;61464;51.472;5.712;2022-08-19T02:29:49;101217.00;;;15.51;100.00
42105;BME280;61464;51.472;5.712;2022-08-19T02:32:16;101218.88;;;15.42;100.00
42105;BME280;61464;51.472;5.712;2022-08-19T02:34:44;101219.22;;;15.39;100.00
42105;BME280;61464;51.472;5.712;2022-08-19T02:37:10;101207.03;;;15.32;100.00
42105;BME280;61464;51.472;5.712;2022-08-19T02:39:55;101222.66;;;15.40;100.00
42105;BME280;61464;51.472;5.712;2022-08-19T02:42:21;101217.41;;;15.40;100.00
42105;BME280;61464;51.472;5.712;2022-08-19T02:44:47;101216.06;;;15.29;100.00
42105;BME280;61464;51.472;5.712;2022-08-19T02:47:13;101231.66;;;15.22;100.00
42105;BME280;61464;51.472;5.712;2022-08-19T02:49:41;101224.34;;;15.18;100.00
42105;BME280;61464;51.472;5.712;2022-08-19T02:52:07;101220.19;;;15.23;100.00
42105;BME280;61464;51.472;5.712;2022-08-19T02:54:33;101236.19;;;15.28;100.00
42105;BME280;61464;51.472;5.712;2022-08-19T02:56:59;101217.22;;;15.26;100.00
42105;BME280;61464;51.472;5.712;2022-08-19T02:59:25;101215.94;;;15.07;100.00
42105;BME280;61464;51.472;5.712;2022-08-19T03:01:52;101215.75;;;15.09;100.00
42105;BME280;61464;51.472;5.712;2022-08-19T03:04:18;101212.16;;;15.10;100.00
42105;BME280;61464;51.472;5.712;2022-08-19T03:06:46;101228.19;;;15.07;100.00
42105;BME280;61464;51.472;5.712;2022-08-19T03:09:14;101220.06;;;15.02;100.00
42105;BME280;61464;51.472;5.712;2022-08-19T03:11:40;101231.78;;;15.06;100.00
42105;BME280;61464;51.472;5.712;2022-08-19T03:14:08;101215.00;;;15.00;100.00
42105;BME280;61464;51.472;5.712;2022-08-19T03:16:44;101224.59;;;15.08;100.00
42105;BME280;61464;51.472;5.712;2022-08-19T03:19:11;101232.25;;;15.09;100.00
42105;BME280;61464;51.472;5.712;2022-08-19T03:21:37;101228.00;;;15.08;100.00
42105;BME280;61464;51.472;5.712;2022-08-19T03:24:08;101226.72;;;15.04;100.00
42105;BME280;61464;51.472;5.712;2022-08-19T03:26:42;101228.88;;;15.01;100.00
42105;BME280;61464;51.472;5.712;2022-08-19T03:29:08;101235.59;;;15.03;100.00
42105;BME280;61464;51.472;5.712;2022-08-19T03:31:38;101239.06;;;14.96;100.00
42105;BME280;61464;51.472;5.712;2022-08-19T03:34:04;101235.81;;;14.94;100.00
42105;BME280;61464;51.472;5.712;2022-08-19T03:36:30;101237.03;;;15.06;100.00
42105;BME280;61464;51.472;5.712;2022-08-19T03:38:59;101232.66;;;14.98;100.00
42105;BME280;61464;51.472;5.712;2022-08-19T03:41:35;101239.16;;;15.02;100.00
42105;BME280;61464;51.472;5.712;2022-08-19T03:44:02;101235.34;;;14.90;100.00
42105;BME280;61464;51.472;5.712;2022-08-19T03:46:32;101237.50;;;14.86;100.00
42105;BME280;61464;51.472;5.712;2022-08-19T03:49:01;101226.28;;;14.78;100.00
42105;BME280;61464;51.472;5.712;2022-08-19T03:51:32;101225.53;;;14.69;100.00
42105;BME280;61464;51.472;5.712;2022-08-19T03:54:04;101228.84;;;14.86;100.00
42105;BME280;61464;51.472;5.712;2022-08-19T03:56:32;101230.97;;;14.82;100.00
42105;BME280;61464;51.472;5.712;2022-08-19T03:58:59;101231.50;;;14.78;100.00
42105;BME280;61464;51.472;5.712;2022-08-19T04:01:27;101243.47;;;14.72;100.00
42105;BME280;61464;51.472;5.712;2022-08-19T04:03:55;101229.13;;;14.68;100.00
42105;BME280;61464;51.472;5.712;2022-08-19T04:06:33;101228.16;;;14.69;100.00
42105;BME280;61464;51.472;5.712;2022-08-19T04:09:03;101231.34;;;14.56;100.00
42105;BME280;61464;51.472;5.712;2022-08-19T04:11:39;101232.16;;;14.57;100.00
42105;BME280;61464;51.472;5.712;2022-08-19T04:14:13;101235.03;;;14.62;100.00
42105;BME280;61464;51.472;5.712;2022-08-19T04:16:39;101225.44;;;14.54;100.00
42105;BME280;61464;51.472;5.712;2022-08-19T04:19:06;101223.78;;;14.61;100.00
42105;BME280;61464;51.472;5.712;2022-08-19T04:21:33;101222.19;;;14.52;100.00
42105;BME280;61464;51.472;5.712;2022-08-19T04:24:00;101220.22;;;14.62;100.00
42105;BME280;61464;51.472;5.712;2022-08-19T04:26:34;101216.59;;;14.63;100.00
42105;BME280;61464;51.472;5.712;2022-08-19T04:29:07;101215.25;;;14.67;100.00
42105;BME280;61464;51.472;5.712;2022-08-19T04:31:33;101211.03;;;14.66;100.00
42105;BME280;61464;51.472;5.712;2022-08-19T04:34:04;101207.41;;;14.67;100.00
42105;BME280;61464;51.472;5.712;2022-08-19T04:36:34;101204.34;;;14.64;100.00
42105;BME280;61464;51.472;5.712;2022-08-19T04:39:10;101214.00;;;14.55;100.00
42105;BME280;61464;51.472;5.712;2022-08-19T04:41:37;101215.25;;;14.67;100.00
42105;BME280;61464;51.472;5.712;2022-08-19T04:44:21;101205.97;;;14.65;100.00
42105;BME280;61464;51.472;5.712;2022-08-19T04:46:49;101219.41;;;14.54;100.00
42105;BME280;61464;51.472;5.712;2022-08-19T04:49:17;101210.75;;;14.53;100.00
42105;BME280;61464;51.472;5.712;2022-08-19T04:51:46;101216.13;;;14.52;100.00
42105;BME280;61464;51.472;5.712;2022-08-19T04:54:16;101226.13;;;14.56;100.00
42105;BME280;61464;51.472;5.712;2022-08-19T04:56:43;101229.00;;;14.61;100.00
42105;BME280;61464;51.472;5.712;2022-08-19T04:59:09;101235.69;;;14.64;100.00
42105;BME280;61464;51.472;5.712;2022-08-19T05:01:36;101217.28;;;14.57;100.00
42105;BME280;61464;51.472;5.712;2022-08-19T05:04:06;101230.28;;;14.65;100.00
42105;BME280;61464;51.472;5.712;2022-08-19T05:06:33;101238.66;;;14.84;100.00
42105;BME280;61464;51.472;5.712;2022-08-19T05:09:02;101234.78;;;14.80;100.00
42105;BME280;61464;51.472;5.712;2022-08-19T05:11:35;101235.88;;;14.85;100.00
42105;BME280;61464;51.472;5.712;2022-08-19T05:14:06;101238.03;;;14.82;100.00
42105;BME280;61464;51.472;5.712;2022-08-19T05:16:32;101245.84;;;14.82;100.00
42105;BME280;61464;51.472;5.712;2022-08-19T05:18:57;101241.75;;;14.87;100.00
42105;BME280;61464;51.472;5.712;2022-08-19T05:21:43;101252.34;;;15.09;100.00
42105;BME280;61464;51.472;5.712;2022-08-19T05:24:29;101257.09;;;15.28;100.00
42105;BME280;61464;51.472;5.712;2022-08-19T05:26:56;101270.75;;;15.39;100.00
42105;BME280;61464;51.472;5.712;2022-08-19T05:29:25;101277.50;;;15.48;100.00
42105;BME280;61464;51.472;5.712;2022-08-19T05:31:52;101265.69;;;15.52;100.00
42105;BME280;61464;51.472;5.712;2022-08-19T05:34:20;101277.91;;;15.60;100.00
42105;BME280;61464;51.472;5.712;2022-08-19T05:36:57;101272.41;;;15.69;100.00
42105;BME280;61464;51.472;5.712;2022-08-19T05:39:28;101267.75;;;15.80;100.00
42105;BME280;61464;51.472;5.712;2022-08-19T05:42:02;101274.25;;;15.99;100.00
42105;BME280;61464;51.472;5.712;2022-08-19T05:44:31;101264.75;;;16.13;100.00
42105;BME280;61464;51.472;5.712;2022-08-19T05:47:00;101276.31;;;16.18;100.00
42105;BME280;61464;51.472;5.712;2022-08-19T05:49:28;101276.94;;;16.20;100.00
42105;BME280;61464;51.472;5.712;2022-08-19T05:51:55;101279.00;;;16.25;100.00
42105;BME280;61464;51.472;5.712;2022-08-19T05:54:23;101277.72;;;16.36;100.00
42105;BME280;61464;51.472;5.712;2022-08-19T05:56:51;101273.63;;;16.48;100.00
42105;BME280;61464;51.472;5.712;2022-08-19T05:59:18;101268.38;;;16.48;100.00
42105;BME280;61464;51.472;5.712;2022-08-19T06:01:48;101276.50;;;16.53;100.00
42105;BME280;61464;51.472;5.712;2022-08-19T06:04:20;101281.00;;;16.59;100.00
42105;BME280;61464;51.472;5.712;2022-08-19T06:06:50;101278.69;;;16.49;100.00
42105;BME280;61464;51.472;5.712;2022-08-19T06:09:18;101283.69;;;16.66;100.00
42105;BME280;61464;51.472;5.712;2022-08-19T06:11:48;101274.09;;;16.73;100.00
42105;BME280;61464;51.472;5.712;2022-08-19T06:14:18;101281.94;;;16.88;100.00
42105;BME280;61464;51.472;5.712;2022-08-19T06:16:46;101273.28;;;17.16;100.00
42105;BME280;61464;51.472;5.712;2022-08-19T06:19:15;101269.53;;;17.53;98.40
42105;BME280;61464;51.472;5.712;2022-08-19T06:21:45;101267.06;;;17.80;96.27
42105;BME280;61464;51.472;5.712;2022-08-19T06:24:16;101275.63;;;17.54;96.41
42105;BME280;61464;51.472;5.712;2022-08-19T06:26:45;101277.22;;;17.26;98.25
42105;BME280;61464;51.472;5.712;2022-08-19T06:29:14;101273.78;;;17.26;98.48
42105;BME280;61464;51.472;5.712;2022-08-19T06:31:44;101274.41;;;17.56;98.03
42105;BME280;61464;51.472;5.712;2022-08-19T06:34:11;101272.00;;;17.89;95.92
42105;BME280;61464;51.472;5.712;2022-08-19T06:36:44;101273.31;;;17.72;96.55
42105;BME280;61464;51.472;5.712;2022-08-19T06:39:24;101278.38;;;17.45;97.24
42105;BME280;61464;51.472;5.712;2022-08-19T06:41:54;101274.25;;;17.36;98.41
42105;BME280;61464;51.472;5.712;2022-08-19T06:44:24;101267.28;;;17.22;99.28
42105;BME280;61464;51.472;5.712;2022-08-19T06:46:52;101274.66;;;17.33;99.67
42105;BME280;61464;51.472;5.712;2022-08-19T06:49:18;101263.78;;;17.36;99.42
42105;BME280;61464;51.472;5.712;2022-08-19T06:51:47;101268.22;;;17.64;98.40
42105;BME280;61464;51.472;5.712;2022-08-19T06:54:15;101268.88;;;17.79;97.01
42105;BME280;61464;51.472;5.712;2022-08-19T06:56:41;101278.41;;;18.22;95.44
42105;BME280;61464;51.472;5.712;2022-08-19T06:59:21;101279.75;;;18.59;92.02
42105;BME280;61464;51.472;5.712;2022-08-19T07:01:55;101274.75;;;19.38;88.25
42105;BME280;61464;51.472;5.712;2022-08-19T07:04:29;101267.47;;;19.40;87.44
42105;BME280;61464;51.472;5.712;2022-08-19T07:07:06;101271.13;;;19.25;87.70
42105;BME280;61464;51.472;5.712;2022-08-19T07:09:35;101278.41;;;18.90;89.34
42105;BME280;61464;51.472;5.712;2022-08-19T07:12:04;101276.38;;;18.85;89.71
42105;BME280;61464;51.472;5.712;2022-08-19T07:14:30;101273.25;;;18.48;91.08
42105;BME280;61464;51.472;5.712;2022-08-19T07:16:57;101280.91;;;18.37;92.25
42105;BME280;61464;51.472;5.712;2022-08-19T07:19:26;101281.94;;;18.56;92.70
42105;BME280;61464;51.472;5.712;2022-08-19T07:21:53;101281.81;;;18.77;91.19
42105;BME280;61464;51.472;5.712;2022-08-19T07:24:25;101284.28;;;19.39;87.75
42105;BME280;61464;51.472;5.712;2022-08-19T07:26:53;101286.94;;;19.32;87.35
42105;BME280;61464;51.472;5.712;2022-08-19T07:29:20;101294.22;;;19.03;89.59
42105;BME280;61464;51.472;5.712;2022-08-19T07:31:50;101287.13;;;19.04;89.03
42105;BME280;61464;51.472;5.712;2022-08-19T07:34:17;101298.28;;;19.26;88.88
42105;BME280;61464;51.472;5.712;2022-08-19T07:36:43;101298.06;;;19.27;88.35
42105;BME280;61464;51.472;5.712;2022-08-19T07:39:16;101290.56;;;19.24;87.90
42105;BME280;61464;51.472;5.712;2022-08-19T07:41:43;101297.25;;;19.47;87.91
42105;BME280;61464;51.472;5.712;2022-08-19T07:44:10;101290.94;;;19.48;87.70
42105;BME280;61464;51.472;5.712;2022-08-19T07:46:44;101308.16;;;19.70;86.85
42105;BME280;61464;51.472;5.712;2022-08-19T07:49:12;101304.09;;;19.88;86.45
42105;BME280;61464;51.472;5.712;2022-08-19T07:54:24;101299.91;;;19.40;87.08
42105;BME280;61464;51.472;5.712;2022-08-19T07:56:51;101302.72;;;19.45;86.97
42105;BME280;61464;51.472;5.712;2022-08-19T07:59:19;101301.28;;;19.56;87.17
42105;BME280;61464;51.472;5.712;2022-08-19T08:01:46;101311.19;;;19.54;86.70
42105;BME280;61464;51.472;5.712;2022-08-19T08:04:13;101304.13;;;19.48;86.76
42105;BME280;61464;51.472;5.712;2022-08-19T08:06:58;101302.28;;;19.62;86.73
42105;BME280;61464;51.472;5.712;2022-08-19T08:09:43;101312.22;;;19.60;85.43
42105;BME280;61464;51.472;5.712;2022-08-19T08:12:36;101315.84;;;19.79;86.23
42105;BME280;61464;51.472;5.712;2022-08-19T08:15:12;101328.38;;;19.97;85.07
42105;BME280;61464;51.472;5.712;2022-08-19T08:17:42;101326.78;;;19.96;84.35
42105;BME280;61464;51.472;5.712;2022-08-19T08:20:09;101329.63;;;19.87;84.94
42105;BME280;61464;51.472;5.712;2022-08-19T08:22:35;101323.69;;;20.05;83.53
42105;BME280;61464;51.472;5.712;2022-08-19T08:25:24;101333.47;;;19.98;84.04
42105;BME280;61464;51.472;5.712;2022-08-19T08:27:50;101328.31;;;20.23;83.43
42105;BME280;61464;51.472;5.712;2022-08-19T08:30:23;101330.69;;;20.32;82.37
42105;BME280;61464;51.472;5.712;2022-08-19T08:32:51;101337.81;;;20.31;80.36
42105;BME280;61464;51.472;5.712;2022-08-19T08:35:21;101340.03;;;20.27;80.89
42105;BME280;61464;51.472;5.712;2022-08-19T08:37:50;101343.38;;;20.55;79.54
42105;BME280;61464;51.472;5.712;2022-08-19T08:43:24;101338.13;;;20.93;78.83
42105;BME280;61464;51.472;5.712;2022-08-19T08:46:09;101349.56;;;21.12;77.80
42105;BME280;61464;51.472;5.712;2022-08-19T08:48:54;101349.47;;;21.00;77.69
42105;BME280;61464;51.472;5.712;2022-08-19T08:51:37;101342.94;;;21.03;76.99
42105;BME280;61464;51.472;5.712;2022-08-19T08:54:11;101347.22;;;20.97;75.10
42105;BME280;61464;51.472;5.712;2022-08-19T08:56:40;101345.69;;;21.15;75.36
42105;BME280;61464;51.472;5.712;2022-08-19T08:59:21;101335.88;;;21.22;74.35
42105;BME280;61464;51.472;5.712;2022-08-19T09:01:47;101348.22;;;21.03;75.49
42105;BME280;61464;51.472;5.712;2022-08-19T09:04:13;101335.56;;;21.12;75.63
42105;BME280;61464;51.472;5.712;2022-08-19T09:09:50;101339.84;;;21.38;73.67
42105;BME280;61464;51.472;5.712;2022-08-19T09:15:54;101340.19;;;21.48;71.59
42105;BME280;61464;51.472;5.712;2022-08-19T09:18:23;101350.28;;;21.51;71.01
42105;BME280;61464;51.472;5.712;2022-08-19T09:20:49;101353.78;;;21.52;70.73
42105;BME280;61464;51.472;5.712;2022-08-19T09:23:15;101344.31;;;21.37;70.46
42105;BME280;61464;51.472;5.712;2022-08-19T09:25:41;101348.03;;;21.29;69.81
42105;BME280;61464;51.472;5.712;2022-08-19T09:28:08;101340.19;;;21.48;69.72
42105;BME280;61464;51.472;5.712;2022-08-19T09:30:40;101337.94;;;21.20;72.41
42105;BME280;61464;51.472;5.712;2022-08-19T09:33:07;101336.47;;;21.56;72.28
42105;BME280;61464;51.472;5.712;2022-08-19T09:35:33;101343.66;;;21.67;71.60
42105;BME280;61464;51.472;5.712;2022-08-19T09:38:01;101347.06;;;21.74;71.11
42105;BME280;61464;51.472;5.712;2022-08-19T09:40:28;101349.19;;;22.02;70.80
42105;BME280;61464;51.472;5.712;2022-08-19T09:42:55;101348.97;;;22.04;69.30
42105;BME280;61464;51.472;5.712;2022-08-19T09:45:22;101341.72;;;22.18;67.85
42105;BME280;61464;51.472;5.712;2022-08-19T09:47:50;101341.81;;;22.29;67.37
42105;BME280;61464;51.472;5.712;2022-08-19T09:50:17;101340.91;;;22.66;66.35
42105;BME280;61464;51.472;5.712;2022-08-19T09:52:44;101336.41;;;22.55;64.85
42105;BME280;61464;51.472;5.712;2022-08-19T09:55:11;101338.16;;;22.61;65.35
42105;BME280;61464;51.472;5.712;2022-08-19T09:57:38;101352.69;;;22.52;66.46
42105;BME280;61464;51.472;5.712;2022-08-19T10:00:07;101351.25;;;22.37;67.24
42105;BME280;61464;51.472;5.712;2022-08-19T10:02:34;101345.31;;;22.42;66.81
42105;BME280;61464;51.472;5.712;2022-08-19T10:05:00;101356.34;;;22.69;66.60
42105;BME280;61464;51.472;5.712;2022-08-19T10:07:44;101360.53;;;22.28;66.75
42105;BME280;61464;51.472;5.712;2022-08-19T10:10:10;101363.00;;;22.23;66.51
42105;BME280;61464;51.472;5.712;2022-08-19T10:12:36;101362.13;;;22.47;65.42
42105;BME280;61464;51.472;5.712;2022-08-19T10:15:05;101358.94;;;22.87;65.13
42105;BME280;61464;51.472;5.712;2022-08-19T10:17:31;101356.41;;;23.23;64.16
42105;BME280;61464;51.472;5.712;2022-08-19T10:19:59;101354.69;;;23.28;64.59
42105;BME280;61464;51.472;5.712;2022-08-19T10:22:25;101355.03;;;23.20;66.16
42105;BME280;61464;51.472;5.712;2022-08-19T10:24:52;101363.72;;;23.09;65.52
42105;BME280;61464;51.472;5.712;2022-08-19T10:27:18;101363.38;;;22.26;69.11
42105;BME280;61464;51.472;5.712;2022-08-19T10:29:43;101358.16;;;22.20;70.01
42105;BME280;61464;51.472;5.712;2022-08-19T10:32:09;101360.34;;;22.23;70.58
42105;BME280;61464;51.472;5.712;2022-08-19T10:34:37;101364.72;;;21.74;72.15
42105;BME280;61464;51.472;5.712;2022-08-19T10:37:05;101363.44;;;21.83;71.71
42105;BME280;61464;51.472;5.712;2022-08-19T10:39:33;101372.09;;;22.08;71.73
42105;BME280;61464;51.472;5.712;2022-08-19T10:42:03;101360.22;;;22.55;70.33
42105;BME280;61464;51.472;5.712;2022-08-19T10:46:55;101366.66;;;22.59;68.97
42105;BME280;61464;51.472;5.712;2022-08-19T10:49:21;101355.00;;;22.78;68.87
42105;BME280;61464;51.472;5.712;2022-08-19T10:51:49;101345.16;;;22.97;67.52
42105;BME280;61464;51.472;5.712;2022-08-19T10:54:33;101354.00;;;22.91;67.28
42105;BME280;61464;51.472;5.712;2022-08-19T10:57:18;101358.84;;;22.34;69.01
42105;BME280;61464;51.472;5.712;2022-08-19T10:59:44;101365.94;;;22.15;70.69
42105;BME280;61464;51.472;5.712;2022-08-19T11:02:11;101365.31;;;22.38;69.80
42105;BME280;61464;51.472;5.712;2022-08-19T11:04:39;101357.69;;;22.60;68.49
42105;BME280;61464;51.472;5.712;2022-08-19T11:07:06;101358.56;;;23.02;67.44
42105;BME280;61464;51.472;5.712;2022-08-19T11:09:39;101358.13;;;23.29;66.07
42105;BME280;61464;51.472;5.712;2022-08-19T11:12:06;101353.22;;;22.60;65.85
42105;BME280;61464;51.472;5.712;2022-08-19T11:14:33;101360.69;;;23.24;64.92
42105;BME280;61464;51.472;5.712;2022-08-19T11:17:01;101354.66;;;23.17;65.10
42105;BME280;61464;51.472;5.712;2022-08-19T11:19:27;101362.28;;;23.60;63.21
42105;BME280;61464;51.472;5.712;2022-08-19T11:21:53;101358.63;;;23.73;62.53
42105;BME280;61464;51.472;5.712;2022-08-19T11:24:23;101346.47;;;23.06;64.98
42105;BME280;61464;51.472;5.712;2022-08-19T11:26:52;101355.72;;;23.75;63.25
42105;BME280;61464;51.472;5.712;2022-08-19T11:29:21;101349.88;;;23.84;62.42
42105;BME280;61464;51.472;5.712;2022-08-19T11:31:48;101352.75;;;23.83;62.18
42105;BME280;61464;51.472;5.712;2022-08-19T11:34:24;101348.59;;;23.75;61.24
42105;BME280;61464;51.472;5.712;2022-08-19T11:36:51;101343.28;;;23.99;61.27
42105;BME280;61464;51.472;5.712;2022-08-19T11:39:21;101347.47;;;24.23;60.21
42105;BME280;61464;51.472;5.712;2022-08-19T11:41:47;101351.84;;;24.29;60.18
42105;BME280;61464;51.472;5.712;2022-08-19T11:44:13;101352.22;;;24.21;60.21
42105;BME280;61464;51.472;5.712;2022-08-19T11:46:41;101345.69;;;24.00;60.30
42105;BME280;61464;51.472;5.712;2022-08-19T11:49:11;101325.22;;;23.37;61.73
42105;BME280;61464;51.472;5.712;2022-08-19T11:51:37;101332.88;;;24.49;58.41
42105;BME280;61464;51.472;5.712;2022-08-19T11:54:05;101339.78;;;24.79;58.27
42105;BME280;61464;51.472;5.712;2022-08-19T11:56:32;101347.75;;;24.10;59.79
42105;BME280;61464;51.472;5.712;2022-08-19T11:58:58;101339.28;;;24.25;60.29
42105;BME280;61464;51.472;5.712;2022-08-19T12:01:26;101348.56;;;22.86;64.58
42105;BME280;61464;51.472;5.712;2022-08-19T12:03:54;101342.25;;;23.29;62.83
42105;BME280;61464;51.472;5.712;2022-08-19T12:06:28;101335.66;;;23.32;62.96
42105;BME280;61464;51.472;5.712;2022-08-19T12:09:00;101339.38;;;23.54;61.86
42105;BME280;61464;51.472;5.712;2022-08-19T12:11:28;101337.66;;;23.83;59.94
42105;BME280;61464;51.472;5.712;2022-08-19T12:13:54;101329.66;;;24.07;59.08
42105;BME280;61464;51.472;5.712;2022-08-19T12:16:27;101332.53;;;24.05;59.41
42105;BME280;61464;51.472;5.712;2022-08-19T12:18:55;101336.53;;;23.79;59.93
42105;BME280;61464;51.472;5.712;2022-08-19T12:21:25;101335.81;;;22.83;62.23
42105;BME280;61464;51.472;5.712;2022-08-19T12:23:54;101339.50;;;23.24;62.88
42105;BME280;61464;51.472;5.712;2022-08-19T12:26:21;101339.25;;;23.37;62.08
42105;BME280;61464;51.472;5.712;2022-08-19T12:28:47;101330.34;;;24.02;59.96
42105;BME280;61464;51.472;5.712;2022-08-19T12:31:14;101330.13;;;24.04;59.36
42105;BME280;61464;51.472;5.712;2022-08-19T12:33:41;101336.25;;;23.81;60.21
42105;BME280;61464;51.472;5.712;2022-08-19T12:36:10;101337.56;;;24.30;59.77
42105;BME280;61464;51.472;5.712;2022-08-19T12:38:38;101332.47;;;24.69;59.36
42105;BME280;61464;51.472;5.712;2022-08-19T12:41:06;101336.13;;;24.40;59.72
42105;BME280;61464;51.472;5.712;2022-08-19T12:43:36;101334.56;;;24.27;60.22
42105;BME280;61464;51.472;5.712;2022-08-19T12:46:04;101332.88;;;24.49;60.11
42105;BME280;61464;51.472;5.712;2022-08-19T12:48:35;101334.44;;;25.25;57.34
42105;BME280;61464;51.472;5.712;2022-08-19T12:51:08;101326.44;;;24.74;58.56
42105;BME280;61464;51.472;5.712;2022-08-19T12:53:36;101331.44;;;25.38;57.60
42105;BME280;61464;51.472;5.712;2022-08-19T12:56:03;101326.69;;;25.06;58.18
42105;BME280;61464;51.472;5.712;2022-08-19T12:58:29;101321.69;;;24.76;58.99
42105;BME280;61464;51.472;5.712;2022-08-19T13:00:55;101325.91;;;24.60;60.21
42105;BME280;61464;51.472;5.712;2022-08-19T13:03:21;101320.00;;;24.29;61.10
42105;BME280;61464;51.472;5.712;2022-08-19T13:05:55;101319.53;;;24.04;61.67
42105;BME280;61464;51.472;5.712;2022-08-19T13:08:21;101311.47;;;23.75;63.51
42105;BME280;61464;51.472;5.712;2022-08-19T13:10:46;101318.59;;;23.75;63.95